KRTS

Reno / Stead Airport

Reno, Nevada, USA
METAR KRTS 212135Z AUTO VRB05G12KT 10SM CLR 28/M07 A3014 RMK AO2
Observed Flight Rules
Jun-21 @ 21:35 UTC (30 minutes ago) Visual Flight Rules
Wind Visibility Clouds
Variable at 5 knots
 Gusting to 12 knots
10 miles
  • Clear skies
Temperatures Readings
Current 28°C / 82°F
Dewpoint -7°C / 19°F
Humidity 9%
Altimeter 30.14" Hg
Pressure 1021 hPa
Elevation 1540
METAR KRTS 212135Z AUTO VRB05G12KT 10SM CLR 28/M07 A3014 RMK AO2
Observed Flight Rules
Jun-21 @ 21:35 UTC
(30 minutes ago)
VFR
Wind Visibility
Variable at 5 knots
 Gusting to 12 knots
10 miles
Clouds
  • Clear skies
Temperature Dewpoint
28°C / 82°F -7°C / 19°F
Humidity Altimeter Pressure
9% 30.14" Hg 1021 hPa